Time;durP1;ratioP1;P1;durP2;ratioP2;P2;SDS_P1;SDS_P2;PMS_P1;PMS_P2;Temp;Humidity;BMP_temperature;BMP_pressure;BME280_temperature;BME280_humidity;BME280_pressure;Samples;Min_cycle;Max_cycle;Signal;HPM_P1;HPM_P2
2022/03/07 00:01:30;;;;;;;0.20;0.10;;;;;;;0.86;70.55;101042.78;5034457;28;20928;-49
2022/03/07 00:03:57;;;;;;;0.20;0.20;;;;;;;0.68;70.92;101046.69;5034790;28;20474;-50
2022/03/07 00:06:24;;;;;;;0.20;0.10;;;;;;;0.75;70.69;101049.50;5034482;28;20820;-49
2022/03/07 00:08:50;;;;;;;0.20;0.10;;;;;;;0.80;70.83;101052.22;5034248;28;20582;-50
2022/03/07 00:11:18;;;;;;;0.20;0.10;;;;;;;0.86;71.04;101049.75;5034277;28;20483;-49
2022/03/07 00:13:44;;;;;;;0.20;0.10;;;;;;;0.68;71.65;101049.31;5034413;28;20451;-49
2022/03/07 00:16:11;;;;;;;0.20;0.10;;;;;;;0.73;71.21;101039.88;5034392;28;20535;-49
2022/03/07 00:18:38;;;;;;;0.20;0.10;;;;;;;0.74;70.97;101046.84;5034225;28;20471;-49
2022/03/07 00:21:07;;;;;;;0.20;0.10;;;;;;;0.82;71.52;101029.59;5034086;28;20501;-49
2022/03/07 00:23:34;;;;;;;0.20;0.10;;;;;;;0.74;71.27;101047.75;5034347;28;20448;-50
2022/03/07 00:26:06;;;;;;;0.20;0.13;;;;;;;0.78;71.27;101043.47;5034060;28;20959;-49
2022/03/07 00:28:33;;;;;;;0.20;0.10;;;;;;;0.84;71.04;101047.13;5034190;28;20545;-50
2022/03/07 00:30:59;;;;;;;0.20;0.10;;;;;;;0.78;71.21;101049.56;5034053;28;20477;-50
2022/03/07 00:33:26;;;;;;;0.20;0.10;;;;;;;0.66;72.47;101051.00;5033935;28;20451;-49
2022/03/07 00:35:53;;;;;;;0.20;0.10;;;;;;;0.72;72.26;101046.81;5024775;28;20445;-49
2022/03/07 00:38:19;;;;;;;0.20;0.10;;;;;;;0.83;72.01;101054.94;5027418;28;20448;-50
2022/03/07 00:40:46;;;;;;;0.20;0.10;;;;;;;0.81;71.42;101065.34;5033897;28;20874;-49
2022/03/07 00:43:13;;;;;;;0.20;0.10;;;;;;;0.77;71.61;101063.50;5030621;28;20451;-49
2022/03/07 00:45:40;;;;;;;0.20;0.13;;;;;;;0.75;71.89;101066.94;5034032;28;20456;-50
2022/03/07 00:48:09;;;;;;;0.20;0.10;;;;;;;0.79;71.35;101067.03;5033460;28;21034;-50
2022/03/07 00:50:35;;;;;;;0.20;0.10;;;;;;;0.82;71.00;101068.84;5033625;28;20510;-50
2022/03/07 00:53:02;;;;;;;0.20;0.10;;;;;;;0.73;72.15;101058.19;5033794;28;20451;-50
2022/03/07 00:55:29;;;;;;;0.20;0.10;;;;;;;0.78;72.13;101077.47;5034203;28;20510;-50
2022/03/07 00:57:55;;;;;;;0.20;0.10;;;;;;;0.81;72.04;101064.44;5033603;28;20983;-50
2022/03/07 01:00:22;;;;;;;0.20;0.10;;;;;;;0.71;71.57;101068.59;5033578;28;20521;-50
2022/03/07 01:02:48;;;;;;;0.20;0.10;;;;;;;0.71;71.61;101089.53;5033475;28;20977;-50
2022/03/07 01:05:16;;;;;;;0.20;0.10;;;;;;;0.69;71.44;101067.69;5033960;28;20539;-50
2022/03/07 01:07:42;;;;;;;0.20;0.10;;;;;;;0.73;72.43;101063.41;5033362;28;21035;-50
2022/03/07 01:10:09;;;;;;;0.20;0.10;;;;;;;0.72;71.19;101067.75;5033343;28;20487;-49
2022/03/07 01:12:36;;;;;;;0.20;0.10;;;;;;;0.70;72.43;101064.22;5033398;28;20448;-49
2022/03/07 01:15:04;;;;;;;0.20;0.10;;;;;;;0.58;72.30;101075.28;5024618;28;20460;-49
2022/03/07 01:17:30;;;;;;;0.20;0.10;;;;;;;0.65;71.59;101065.81;5028772;28;20459;-49
2022/03/07 01:19:57;;;;;;;0.20;0.13;;;;;;;0.69;71.80;101072.94;5032893;28;20843;-49
2022/03/07 01:22:23;;;;;;;0.20;0.10;;;;;;;0.68;70.87;101068.50;5033118;28;20481;-49
2022/03/07 01:24:50;;;;;;;0.20;0.10;;;;;;;0.44;72.10;101067.94;5033233;28;20447;-49
2022/03/07 01:27:19;;;;;;;0.20;0.10;;;;;;;0.50;70.57;101068.06;5032913;28;21016;-49
2022/03/07 01:29:46;;;;;;;0.20;0.10;;;;;;;0.36;71.60;101061.63;5033069;28;20471;-49
2022/03/07 01:32:12;;;;;;;0.20;0.10;;;;;;;0.39;72.40;101065.19;5033466;28;20498;-49
2022/03/07 01:34:39;;;;;;;0.20;0.10;;;;;;;0.32;71.82;101068.50;5032903;28;20479;-49
2022/03/07 01:37:06;;;;;;;0.30;0.30;;;;;;;0.29;72.62;101068.44;5017239;28;21105;-49
2022/03/07 01:39:32;;;;;;;0.20;0.10;;;;;;;0.11;72.46;101065.31;5033195;28;20475;-49
2022/03/07 01:41:59;;;;;;;0.20;0.10;;;;;;;0.11;72.23;101062.72;5029122;28;20476;-48
2022/03/07 01:44:29;;;;;;;6.23;1.13;;;;;;;0.07;71.27;101073.94;5033976;28;20456;-49
2022/03/07 01:46:57;;;;;;;0.20;0.10;;;;;;;0.07;71.10;101063.50;5033985;28;20522;-49
2022/03/07 01:49:27;;;;;;;0.50;0.50;;;;;;;0.09;70.26;101060.06;5034461;28;20887;-49
2022/03/07 01:51:53;;;;;;;0.20;0.10;;;;;;;0.03;69.97;101062.53;5034466;28;20804;-49
2022/03/07 01:54:21;;;;;;;0.20;0.10;;;;;;;-0.11;69.26;101066.50;5033972;28;20505;-48
2022/03/07 01:56:50;;;;;;;0.20;0.10;;;;;;;-0.08;69.05;101059.63;5034380;28;20936;-49
2022/03/07 01:59:22;;;;;;;0.20;0.10;;;;;;;-0.08;68.78;101059.63;5034195;28;20843;-49
2022/03/07 02:01:49;;;;;;;0.20;0.10;;;;;;;-0.28;69.83;101066.03;5034176;28;20444;-49
2022/03/07 02:04:16;;;;;;;0.20;0.10;;;;;;;-0.17;69.18;101061.09;5033883;28;20447;-49
2022/03/07 02:06:44;;;;;;;0.20;0.10;;;;;;;-0.30;68.69;101055.53;5008035;28;20499;-49
2022/03/07 02:09:11;;;;;;;0.20;0.10;;;;;;;-0.24;68.38;101057.44;5034542;28;20525;-49
2022/03/07 02:11:38;;;;;;;0.20;0.10;;;;;;;-0.27;68.71;101059.06;5032426;28;20967;-49
2022/03/07 02:14:11;;;;;;;0.20;0.20;;;;;;;-0.17;68.04;101063.72;5032370;28;21247;-49
2022/03/07 02:16:38;;;;;;;0.20;0.10;;;;;;;-0.24;67.69;101061.78;5032680;28;20455;-49
2022/03/07 02:19:05;;;;;;;0.20;0.10;;;;;;;-0.15;67.29;101060.28;5032376;28;20490;-49
2022/03/07 02:21:35;;;;;;;0.20;0.10;;;;;;;-0.15;67.03;101057.69;5032586;28;20456;-49
2022/03/07 02:24:03;;;;;;;0.20;0.10;;;;;;;-0.12;66.82;101054.28;5032208;28;20478;-49
2022/03/07 02:26:30;;;;;;;0.20;0.10;;;;;;;-0.07;66.78;101055.28;5032341;28;20510;-49
2022/03/07 02:28:57;;;;;;;0.20;0.10;;;;;;;-0.09;66.43;101064.81;5031987;28;20499;-49
2022/03/07 02:31:24;;;;;;;0.20;0.10;;;;;;;-0.05;65.89;101066.66;5035934;28;20447;-49
2022/03/07 02:33:51;;;;;;;0.20;0.10;;;;;;;0.01;66.20;101058.13;5036190;28;20874;-49
2022/03/07 02:36:18;;;;;;;0.20;0.10;;;;;;;-0.07;65.86;101069.22;5023800;28;20865;-49
2022/03/07 02:38:45;;;;;;;0.20;0.10;;;;;;;0.00;65.33;101062.47;5033331;28;20463;-49
2022/03/07 02:41:11;;;;;;;0.20;0.10;;;;;;;0.02;65.67;101067.72;5036016;28;20502;-49
2022/03/07 02:43:38;;;;;;;0.20;0.10;;;;;;;0.00;65.60;101065.06;5033661;28;20822;-49
2022/03/07 02:46:05;;;;;;;0.20;0.10;;;;;;;-0.06;65.01;101073.63;5036240;28;20452;-49
2022/03/07 02:48:32;;;;;;;0.20;0.10;;;;;;;0.07;64.97;101063.50;5036193;28;21000;-49
2022/03/07 02:50:58;;;;;;;0.20;0.10;;;;;;;0.01;65.70;101058.13;5036076;28;20998;-49
2022/03/07 02:53:26;;;;;;;0.20;0.10;;;;;;;0.05;64.86;101057.34;5035882;28;20455;-49
2022/03/07 02:55:54;;;;;;;0.20;0.10;;;;;;;0.08;65.60;101066.13;5035905;28;20452;-49
2022/03/07 02:58:21;;;;;;;0.20;0.10;;;;;;;-0.11;65.33;101062.16;5036033;28;20449;-49
2022/03/07 03:00:48;;;;;;;0.20;0.10;;;;;;;0.01;65.46;101055.50;5035996;28;20505;-49
2022/03/07 03:03:15;;;;;;;0.20;0.10;;;;;;;-0.02;65.46;101046.72;5035775;28;20940;-49
2022/03/07 03:05:42;;;;;;;0.20;0.10;;;;;;;-0.09;65.38;101064.81;5036477;28;20878;-49
2022/03/07 03:08:09;;;;;;;0.20;0.10;;;;;;;-0.01;65.62;101048.47;5035430;28;20519;-49
2022/03/07 03:10:36;;;;;;;0.20;0.10;;;;;;;0.11;65.73;101052.25;5035667;28;20881;-49
2022/03/07 03:13:03;;;;;;;0.20;0.10;;;;;;;0.07;65.02;101035.63;5035646;28;20483;-49
2022/03/07 03:15:29;;;;;;;0.20;0.10;;;;;;;0.12;64.62;101047.06;5036624;28;20505;-49
2022/03/07 03:17:56;;;;;;;0.20;0.10;;;;;;;0.10;65.56;101040.03;5037126;28;20448;-49
2022/03/07 03:20:23;;;;;;;0.20;0.10;;;;;;;0.09;65.29;101046.13;5037036;28;20854;-49
2022/03/07 03:22:52;;;;;;;0.20;0.10;;;;;;;0.14;64.11;101044.53;5038410;28;20535;-49
2022/03/07 03:25:19;;;;;;;1.67;1.37;;;;;;;0.20;64.79;101048.16;5039535;28;20447;-49
2022/03/07 03:27:45;;;;;;;0.20;0.10;;;;;;;0.03;65.13;101054.69;5037383;28;20455;-49
2022/03/07 03:30:13;;;;;;;0.20;0.10;;;;;;;0.10;65.11;101059.22;5035579;28;20533;-49
2022/03/07 03:32:40;;;;;;;0.20;0.10;;;;;;;0.21;64.85;101064.72;5035377;28;20459;-49
2022/03/07 03:35:07;;;;;;;0.20;0.10;;;;;;;0.11;64.71;101065.31;5032394;28;20467;-49
2022/03/07 03:37:34;;;;;;;0.20;0.10;;;;;;;0.18;64.08;101069.88;5022798;28;20451;-49
2022/03/07 03:40:02;;;;;;;0.20;0.10;;;;;;;0.09;64.27;101065.28;5035083;28;20476;-49
2022/03/07 03:42:29;;;;;;;0.20;0.10;;;;;;;0.07;64.17;101069.59;5031979;28;20476;-49
2022/03/07 03:44:58;;;;;;;0.20;0.10;;;;;;;0.14;63.62;101073.28;5033599;28;20447;-49
2022/03/07 03:47:25;;;;;;;0.20;0.20;;;;;;;0.12;63.78;101070.59;5023733;28;20448;-49
2022/03/07 03:49:52;;;;;;;0.20;0.10;;;;;;;0.08;64.56;101075.72;5035252;28;20491;-49
2022/03/07 03:52:19;;;;;;;0.60;0.60;;;;;;;0.10;64.54;101077.50;5034878;28;20951;-49
2022/03/07 03:54:45;;;;;;;0.20;0.10;;;;;;;0.10;64.30;101085.34;5035156;28;20455;-49
2022/03/07 03:57:12;;;;;;;0.73;0.73;;;;;;;0.07;63.15;101079.16;5035038;28;20479;-49
2022/03/07 03:59:38;;;;;;;0.30;0.20;;;;;;;0.15;63.63;101077.66;5034845;28;20530;-49
2022/03/07 04:02:05;;;;;;;1.13;1.13;;;;;;;0.10;63.78;101076.63;5034808;28;20448;-49
2022/03/07 04:04:32;;;;;;;0.20;0.10;;;;;;;0.27;63.99;101084.09;5034237;28;20451;-49
2022/03/07 04:06:59;;;;;;;0.20;0.10;;;;;;;0.22;63.85;101088.28;5034653;28;20447;-49
2022/03/07 04:09:29;;;;;;;0.20;0.10;;;;;;;0.26;63.92;101089.25;5034725;28;20936;-51
2022/03/07 04:11:56;;;;;;;0.20;0.10;;;;;;;0.37;64.30;101082.56;5034513;28;20452;-50
2022/03/07 04:14:23;;;;;;;0.20;0.10;;;;;;;0.03;64.64;101095.63;5034285;28;20547;-50
2022/03/07 04:16:54;;;;;;;1.43;0.90;;;;;;;0.14;64.61;101087.22;5034259;28;20447;-51
2022/03/07 04:19:24;;;;;;;0.50;0.47;;;;;;;-0.02;64.20;101087.63;5020903;28;20464;-51
2022/03/07 04:21:51;;;;;;;0.30;0.20;;;;;;;0.12;64.92;101096.72;5034372;28;20868;-51
2022/03/07 04:24:18;;;;;;;0.20;0.10;;;;;;;0.11;63.76;101094.97;5029325;28;21027;-50
2022/03/07 04:26:44;;;;;;;0.20;0.10;;;;;;;0.09;64.61;101095.78;5025869;28;20447;-51
2022/03/07 04:29:12;;;;;;;0.20;0.13;;;;;;;-0.07;64.99;101097.97;5033618;28;20495;-51
2022/03/07 04:31:43;;;;;;;0.20;0.10;;;;;;;0.03;64.84;101101.72;5033931;28;20456;-50
2022/03/07 04:34:13;;;;;;;0.20;0.10;;;;;;;0.07;64.86;101095.72;5033949;28;20443;-51
2022/03/07 04:36:40;;;;;;;0.20;0.10;;;;;;;0.02;64.56;101089.50;5018839;28;20464;-51
2022/03/07 04:39:09;;;;;;;0.20;0.10;;;;;;;-0.05;64.79;101104.13;5007613;28;20503;-50
2022/03/07 04:41:37;;;;;;;0.20;0.10;;;;;;;0.07;64.95;101105.31;5030786;28;20452;-51
2022/03/07 04:44:04;;;;;;;0.20;0.10;;;;;;;-0.16;65.18;101102.94;5033579;28;20448;-51
2022/03/07 04:46:31;;;;;;;0.20;0.10;;;;;;;0.03;65.05;101108.69;5033657;28;20452;-51
2022/03/07 04:48:58;;;;;;;0.20;0.10;;;;;;;-0.20;65.77;101105.44;5033689;28;20495;-50
2022/03/07 04:51:25;;;;;;;0.20;0.10;;;;;;;-0.12;65.77;101110.03;5033613;28;20455;-51
2022/03/07 04:53:52;;;;;;;0.20;0.10;;;;;;;-0.30;66.10;101109.50;5032680;28;20937;-51
2022/03/07 04:56:19;;;;;;;2.50;1.33;;;;;;;-0.36;66.11;101117.19;5031848;28;20452;-51
2022/03/07 04:58:46;;;;;;;0.20;0.10;;;;;;;-0.40;66.56;101115.31;5022119;28;20518;-51
2022/03/07 05:01:14;;;;;;;0.20;0.10;;;;;;;-0.53;66.76;101123.63;5033615;28;20502;-51
2022/03/07 05:03:41;;;;;;;0.30;0.20;;;;;;;-0.19;66.23;101121.16;5033519;28;20452;-50
2022/03/07 05:06:10;;;;;;;0.20;0.10;;;;;;;-0.16;65.85;101123.84;5020166;28;20519;-51
2022/03/07 05:08:40;;;;;;;0.20;0.10;;;;;;;-0.17;65.79;101116.84;5033251;28;20522;-51
2022/03/07 05:11:07;;;;;;;0.20;0.10;;;;;;;-0.19;66.39;101120.25;5033109;28;20448;-52
2022/03/07 05:13:33;;;;;;;0.30;0.20;;;;;;;-0.05;65.81;101122.41;5033440;28;20451;-51
2022/03/07 05:16:00;;;;;;;0.20;0.20;;;;;;;-0.30;65.86;101131.28;5029998;28;20848;-52
2022/03/07 05:18:27;;;;;;;0.20;0.10;;;;;;;-0.55;67.08;101117.47;5023445;28;20471;-51
2022/03/07 05:20:53;;;;;;;0.20;0.10;;;;;;;-0.82;68.40;101123.66;5033152;28;20991;-51
2022/03/07 05:23:23;;;;;;;0.20;0.10;;;;;;;-0.90;69.05;101128.63;5033206;28;20498;-51
2022/03/07 05:25:50;;;;;;;1.03;1.03;;;;;;;-0.83;68.33;101126.19;5033034;28;20532;-51
2022/03/07 05:28:17;;;;;;;0.20;0.10;;;;;;;-0.93;68.48;101119.81;5033220;28;20447;-51
2022/03/07 05:30:43;;;;;;;0.20;0.10;;;;;;;-0.86;67.89;101136.53;5032993;28;20452;-52
2022/03/07 05:33:10;;;;;;;0.20;0.10;;;;;;;-0.79;67.24;101126.34;5033202;28;20874;-51
2022/03/07 05:35:37;;;;;;;0.20;0.10;;;;;;;-0.77;67.44;101124.66;5025974;28;20445;-51
2022/03/07 05:38:04;;;;;;;0.20;0.10;;;;;;;-0.37;66.24;101125.84;5024416;28;20506;-51
2022/03/07 05:40:31;;;;;;;0.20;0.10;;;;;;;-0.62;66.94;101137.28;5031506;28;20447;-51
2022/03/07 05:42:58;;;;;;;0.20;0.20;;;;;;;-0.79;67.44;101139.41;5029826;28;20447;-51
2022/03/07 05:45:25;;;;;;;0.20;0.10;;;;;;;-0.94;67.95;101129.38;5032898;28;20448;-51
2022/03/07 05:47:52;;;;;;;0.20;0.10;;;;;;;-0.70;67.08;101128.31;5032968;28;20565;-50
2022/03/07 05:50:18;;;;;;;0.20;0.10;;;;;;;-0.67;66.92;101141.50;5031366;28;20865;-51
2022/03/07 05:52:45;;;;;;;0.20;0.20;;;;;;;-0.72;67.37;101136.13;5032853;28;20454;-50
2022/03/07 05:55:12;;;;;;;0.30;0.20;;;;;;;-0.83;66.75;101134.91;5032690;28;21106;-50
2022/03/07 05:57:38;;;;;;;0.20;0.10;;;;;;;-1.12;68.57;101138.31;5033019;28;20460;-50
2022/03/07 06:00:08;;;;;;;0.20;0.10;;;;;;;-1.10;69.12;101147.94;5032731;28;20463;-50
2022/03/07 06:02:34;;;;;;;1.17;1.17;;;;;;;-1.09;69.48;101147.16;5032663;28;20505;-50
2022/03/07 06:05:03;;;;;;;0.20;0.10;;;;;;;-1.36;70.74;101154.06;5032146;28;20451;-50
2022/03/07 06:07:30;;;;;;;0.20;0.20;;;;;;;-0.95;69.34;101148.47;5032335;28;20932;-51
2022/03/07 06:09:56;;;;;;;0.20;0.10;;;;;;;-0.97;69.55;101152.72;5032082;28;21004;-50
2022/03/07 06:12:26;;;;;;;0.20;0.10;;;;;;;-0.94;68.69;101152.84;5032385;28;20479;-50
2022/03/07 06:14:53;;;;;;;0.20;0.10;;;;;;;-0.81;68.23;101154.13;5006316;28;20930;-51
2022/03/07 06:17:21;;;;;;;0.93;0.93;;;;;;;-0.87;68.37;101160.84;5032167;28;20454;-50
2022/03/07 06:19:48;;;;;;;0.40;0.40;;;;;;;-0.72;67.92;101153.50;5032272;28;20472;-50
2022/03/07 06:22:15;;;;;;;0.20;0.10;;;;;;;-0.85;68.15;101157.44;5032613;28;20456;-50
2022/03/07 06:24:42;;;;;;;0.20;0.10;;;;;;;-0.82;68.28;101161.88;5032156;28;20502;-50
2022/03/07 06:27:08;;;;;;;0.50;0.50;;;;;;;-0.99;68.85;101169.19;5032248;28;20456;-50
2022/03/07 06:29:35;;;;;;;0.20;0.10;;;;;;;-0.97;69.26;101164.88;5031992;28;21062;-50
2022/03/07 06:32:02;;;;;;;0.20;0.20;;;;;;;-0.89;69.26;101168.66;5032008;28;20456;-51
2022/03/07 06:34:29;;;;;;;0.20;0.10;;;;;;;-0.91;69.46;101178.16;5031950;28;20448;-50
2022/03/07 06:36:55;;;;;;;0.20;0.10;;;;;;;-0.87;68.74;101169.56;5016657;28;20997;-50
2022/03/07 06:39:25;;;;;;;0.20;0.20;;;;;;;-0.80;69.35;101176.78;5032051;28;20468;-51
2022/03/07 06:41:52;;;;;;;0.20;0.10;;;;;;;-0.77;69.04;101170.75;5029103;28;20488;-50
2022/03/07 06:44:19;;;;;;;0.20;0.10;;;;;;;-0.72;68.96;101169.16;5032070;28;20867;-50
2022/03/07 06:46:46;;;;;;;0.20;0.10;;;;;;;-0.79;69.37;101169.81;5031888;28;20459;-51
2022/03/07 06:49:13;;;;;;;0.20;0.10;;;;;;;-0.72;69.53;101177.00;5031685;28;20495;-50
2022/03/07 06:51:40;;;;;;;0.20;0.10;;;;;;;-0.57;69.43;101174.84;5032037;28;20498;-50
2022/03/07 06:54:07;;;;;;;0.20;0.20;;;;;;;-0.48;68.96;101177.75;5031923;28;20498;-50
2022/03/07 06:56:36;;;;;;;0.77;0.77;;;;;;;-0.65;69.52;101179.84;5031789;28;20454;-51
2022/03/07 06:59:02;;;;;;;0.20;0.10;;;;;;;-0.42;69.24;101177.03;5031726;28;20468;-50
2022/03/07 07:01:29;;;;;;;0.20;0.10;;;;;;;-0.38;68.82;101185.03;5031676;28;20451;-50
2022/03/07 07:03:56;;;;;;;0.30;0.10;;;;;;;-0.37;68.77;101175.47;5032076;28;20448;-50
2022/03/07 07:06:23;;;;;;;0.20;0.10;;;;;;;-0.32;68.76;101174.75;5031805;28;20455;-51
2022/03/07 07:08:49;;;;;;;0.20;0.20;;;;;;;-0.20;68.42;101173.34;5031600;28;20552;-51
2022/03/07 07:11:16;;;;;;;0.20;0.13;;;;;;;-0.26;68.83;101178.41;5031654;28;20451;-50
2022/03/07 07:13:42;;;;;;;7.27;2.00;;;;;;;-0.27;69.05;101180.13;5032326;28;20525;-51
2022/03/07 07:16:09;;;;;;;0.20;0.10;;;;;;;-0.18;69.09;101177.78;5032571;28;20451;-50
2022/03/07 07:18:36;;;;;;;0.20;0.10;;;;;;;-0.08;68.34;101184.16;5035602;28;20471;-50
2022/03/07 07:21:02;;;;;;;0.40;0.40;;;;;;;0.20;68.38;101175.38;5035374;28;20455;-50
2022/03/07 07:23:29;;;;;;;0.20;0.10;;;;;;;-0.03;68.56;101186.03;5035268;28;20455;-50
2022/03/07 07:25:56;;;;;;;0.20;0.20;;;;;;;-0.02;68.26;101189.53;5035188;28;20474;-47
2022/03/07 07:28:22;;;;;;;0.20;0.20;;;;;;;0.03;68.21;101187.97;5035153;28;20458;-47
2022/03/07 07:30:50;;;;;;;1.17;1.17;;;;;;;0.18;67.56;101184.91;5034850;28;20530;-47
2022/03/07 07:33:17;;;;;;;0.20;0.10;;;;;;;0.33;66.54;101192.28;5035243;28;20447;-47
2022/03/07 07:35:44;;;;;;;0.20;0.10;;;;;;;0.48;65.59;101185.72;5027040;28;20507;-46
2022/03/07 07:38:10;;;;;;;0.20;0.10;;;;;;;0.53;63.83;101197.19;5027377;28;20448;-46
2022/03/07 07:40:37;;;;;;;0.20;0.10;;;;;;;0.51;63.01;101187.53;5035225;28;20451;-47
2022/03/07 07:43:03;;;;;;;0.20;0.10;;;;;;;0.48;63.20;101196.19;5032495;28;20459;-47
2022/03/07 07:45:32;;;;;;;0.20;0.10;;;;;;;0.57;62.83;101208.63;5034781;28;20490;-48
2022/03/07 07:47:59;;;;;;;0.20;0.10;;;;;;;0.51;62.66;101203.22;5034902;28;20459;-46
2022/03/07 07:50:27;;;;;;;0.20;0.10;;;;;;;0.64;62.29;101204.44;5034591;28;20495;-46
2022/03/07 07:52:57;;;;;;;1.13;1.03;;;;;;;0.85;62.66;101203.28;5034572;28;20455;-47
2022/03/07 07:55:24;;;;;;;0.20;0.10;;;;;;;0.99;62.44;101205.34;5034626;28;20875;-47
2022/03/07 07:57:51;;;;;;;0.30;0.23;;;;;;;0.98;60.25;101211.44;5034356;28;20836;-47
2022/03/07 08:00:21;;;;;;;0.20;0.10;;;;;;;0.98;61.09;101220.16;5034464;28;20522;-47
2022/03/07 08:02:48;;;;;;;0.20;0.10;;;;;;;1.16;60.44;101220.63;5034591;28;20459;-47
2022/03/07 08:05:17;;;;;;;0.20;0.10;;;;;;;1.40;60.15;101216.81;5034560;28;20538;-48
2022/03/07 08:07:44;;;;;;;0.20;0.10;;;;;;;1.28;58.91;101230.50;5034421;28;20448;-47
2022/03/07 08:10:13;;;;;;;0.20;0.10;;;;;;;1.23;58.48;101215.50;5034136;28;20541;-48
2022/03/07 08:12:40;;;;;;;0.20;0.10;;;;;;;1.47;58.79;101214.38;5034260;28;20453;-47
2022/03/07 08:15:11;;;;;;;1.23;1.23;;;;;;;1.36;57.69;101218.47;5034408;28;20542;-47
2022/03/07 08:17:39;;;;;;;0.20;0.10;;;;;;;1.26;55.58;101221.72;5034440;28;20454;-47
2022/03/07 08:20:07;;;;;;;0.90;0.57;;;;;;;1.29;55.37;101219.19;5034119;28;20507;-47
2022/03/07 08:22:34;;;;;;;0.20;0.20;;;;;;;1.27;54.91;101223.50;5033944;28;20448;-46
2022/03/07 08:25:00;;;;;;;0.20;0.10;;;;;;;1.35;54.60;101219.31;5033979;28;20482;-47
2022/03/07 08:27:27;;;;;;;0.20;0.10;;;;;;;1.37;55.25;101222.88;5032807;28;20484;-47
2022/03/07 08:29:53;;;;;;;0.20;0.10;;;;;;;1.54;54.83;101219.75;5033759;28;20953;-47
2022/03/07 08:32:20;;;;;;;0.20;0.10;;;;;;;1.54;54.68;101217.13;5033929;28;20521;-47
2022/03/07 08:34:47;;;;;;;0.50;0.50;;;;;;;1.63;53.82;101212.09;5033810;28;20456;-47
2022/03/07 08:37:13;;;;;;;0.20;0.10;;;;;;;1.66;54.52;101217.41;5018482;28;20452;-49
2022/03/07 08:39:40;;;;;;;0.20;0.10;;;;;;;1.65;53.33;101219.16;5033662;28;20471;-47
2022/03/07 08:42:07;;;;;;;0.20;0.20;;;;;;;1.74;53.68;101229.81;5031040;28;20513;-47
2022/03/07 08:44:34;;;;;;;0.20;0.20;;;;;;;1.77;52.91;101211.53;5033666;28;20961;-47
2022/03/07 08:47:00;;;;;;;0.20;0.10;;;;;;;1.96;52.49;101217.19;5033438;28;21002;-47
2022/03/07 08:49:27;;;;;;;0.20;0.10;;;;;;;1.96;52.28;101217.19;5033526;28;20545;-48
2022/03/07 08:51:54;;;;;;;0.20;0.10;;;;;;;2.14;51.53;101227.19;5036105;28;20482;-47
2022/03/07 08:54:20;;;;;;;0.20;0.10;;;;;;;2.03;50.49;101217.34;5035017;28;20451;-48
2022/03/07 08:56:47;;;;;;;0.20;0.10;;;;;;;2.18;50.12;101213.25;5033460;28;20448;-47
2022/03/07 08:59:13;;;;;;;0.20;0.10;;;;;;;2.03;50.87;101216.47;5033494;28;20472;-47
2022/03/07 09:01:40;;;;;;;4.03;1.07;;;;;;;2.31;51.29;101216.16;5033430;28;20487;-46
2022/03/07 09:04:07;;;;;;;0.20;0.10;;;;;;;2.47;51.94;101216.47;5033339;28;20493;-47
2022/03/07 09:06:33;;;;;;;0.20;0.10;;;;;;;2.30;50.32;101224.88;5033108;28;20459;-47
2022/03/07 09:09:00;;;;;;;0.20;0.10;;;;;;;2.44;51.37;101221.66;5031822;28;20479;-47
2022/03/07 09:11:48;;;;;;;0.20;0.10;;;;;;;2.46;51.14;101209.44;5011571;28;20456;-48
2022/03/07 09:14:14;;;;;;;0.20;0.10;;;;;;;2.50;51.10;101214.81;5035336;28;20451;-48
2022/03/07 09:16:42;;;;;;;0.20;0.10;;;;;;;2.42;50.77;101219.00;5034474;28;20470;-46
2022/03/07 09:19:09;;;;;;;0.20;0.10;;;;;;;2.20;50.45;101220.34;5033245;28;20471;-47
2022/03/07 09:21:35;;;;;;;0.20;0.10;;;;;;;2.35;50.22;101214.50;5033501;28;20834;-48
2022/03/07 09:24:02;;;;;;;0.20;0.10;;;;;;;2.31;50.85;101229.28;5033671;28;20456;-47
2022/03/07 09:26:29;;;;;;;0.20;0.10;;;;;;;2.41;51.10;101219.84;5032483;28;20460;-46
2022/03/07 09:28:56;;;;;;;0.20;0.10;;;;;;;2.58;50.20;101228.06;5032060;28;20490;-47
2022/03/07 09:31:22;;;;;;;0.30;0.20;;;;;;;2.49;51.08;101227.91;5033197;28;20492;-47
2022/03/07 09:33:49;;;;;;;0.30;0.20;;;;;;;2.63;50.09;101224.69;5033287;28;20456;-48
2022/03/07 09:36:16;;;;;;;0.20;0.10;;;;;;;2.63;50.77;101231.66;5021182;28;20456;-46
2022/03/07 09:38:43;;;;;;;0.20;0.10;;;;;;;2.60;50.09;101231.59;5029570;28;20843;-47
2022/03/07 09:41:10;;;;;;;0.20;0.10;;;;;;;2.60;50.25;101231.59;5033264;28;20499;-47
2022/03/07 09:43:37;;;;;;;0.20;0.10;;;;;;;2.64;50.91;101229.06;5028032;28;20513;-47
2022/03/07 09:46:04;;;;;;;0.20;0.10;;;;;;;2.76;50.45;101236.28;5032940;28;20451;-47
2022/03/07 09:48:31;;;;;;;0.20;0.10;;;;;;;2.75;50.79;101234.53;5033172;28;20463;-47
2022/03/07 09:50:58;;;;;;;0.20;0.20;;;;;;;2.71;50.76;101226.53;5032987;28;20502;-47
2022/03/07 09:53:29;;;;;;;0.20;0.10;;;;;;;3.04;50.38;101226.28;5033211;28;20455;-47
2022/03/07 09:55:56;;;;;;;0.20;0.10;;;;;;;3.05;49.36;101221.03;5033516;28;20569;-47
2022/03/07 09:58:22;;;;;;;0.20;0.10;;;;;;;3.16;50.30;101229.09;5032957;28;20509;-47
2022/03/07 10:00:49;;;;;;;0.20;0.10;;;;;;;3.26;49.83;101233.63;5031294;28;20493;-47
2022/03/07 10:03:20;;;;;;;0.20;0.10;;;;;;;2.97;49.21;101218.28;5033470;28;20444;-47
2022/03/07 10:05:48;;;;;;;0.20;0.10;;;;;;;2.91;49.54;101235.69;5033074;28;20447;-48
2022/03/07 10:08:28;;;;;;;0.20;0.10;;;;;;;2.99;49.48;101223.53;5032515;28;20459;-47
2022/03/07 10:10:56;;;;;;;0.20;0.10;;;;;;;3.18;50.08;101235.28;5032755;28;20887;-49
2022/03/07 10:13:24;;;;;;;0.20;0.10;;;;;;;3.21;49.77;101238.81;5032557;28;21162;-49
2022/03/07 10:16:02;;;;;;;0.20;0.17;;;;;;;3.42;49.54;101219.88;5033313;28;20506;-50
2022/03/07 10:18:30;;;;;;;0.20;0.10;;;;;;;3.26;49.63;101217.88;5032751;28;20985;-49
2022/03/07 10:21:02;;;;;;;0.20;0.10;;;;;;;3.24;49.29;101223.09;5032746;28;20501;-49
2022/03/07 10:23:30;;;;;;;0.20;0.10;;;;;;;3.04;48.92;101214.03;5032802;28;20455;-49
2022/03/07 10:26:06;;;;;;;0.30;0.30;;;;;;;3.15;49.29;101208.91;5032536;28;20485;-49
2022/03/07 10:28:37;;;;;;;0.20;0.10;;;;;;;3.05;48.76;101217.53;5032597;28;20504;-49
2022/03/07 10:31:17;;;;;;;0.20;0.10;;;;;;;3.40;48.91;101208.47;5032522;28;20960;-49
2022/03/07 10:33:59;;;;;;;0.20;0.20;;;;;;;3.73;48.59;101202.81;5032615;28;20447;-50
2022/03/07 10:36:40;;;;;;;0.20;0.10;;;;;;;3.37;48.87;101215.41;5019353;28;20498;-49
2022/03/07 10:39:12;;;;;;;0.20;0.10;;;;;;;3.79;49.06;101212.53;5032115;28;20471;-49
2022/03/07 10:41:44;;;;;;;0.20;0.10;;;;;;;3.41;48.93;101198.81;5029397;28;21013;-49
2022/03/07 10:44:23;;;;;;;0.30;0.10;;;;;;;3.63;49.07;101198.28;5032104;28;20494;-49
2022/03/07 10:46:50;;;;;;;0.47;0.47;;;;;;;3.84;48.67;101197.72;5031856;28;20455;-49
2022/03/07 10:49:17;;;;;;;0.20;0.10;;;;;;;3.77;49.14;101204.63;5032206;28;20521;-49
2022/03/07 10:51:54;;;;;;;0.20;0.10;;;;;;;3.92;48.97;101195.19;5034612;28;20486;-49
2022/03/07 10:54:22;;;;;;;0.20;0.10;;;;;;;3.85;47.84;101196.84;5036874;28;20509;-49
2022/03/07 10:56:55;;;;;;;0.20;0.10;;;;;;;3.80;48.04;101215.19;5036251;28;20455;-49
2022/03/07 10:59:34;;;;;;;0.20;0.17;;;;;;;3.69;48.14;101201.00;5037039;28;20464;-50
2022/03/07 11:02:16;;;;;;;0.20;0.13;;;;;;;3.72;48.50;101208.06;5036711;28;20493;-49
2022/03/07 11:04:45;;;;;;;1.07;0.97;;;;;;;3.94;48.95;101196.97;5036655;28;20975;-49
2022/03/07 11:07:12;;;;;;;0.30;0.20;;;;;;;3.79;49.13;101202.91;5036272;28;20944;-48
2022/03/07 11:09:41;;;;;;;0.20;0.10;;;;;;;3.76;49.19;101197.59;5035763;28;20540;-49
2022/03/07 11:12:12;;;;;;;0.20;0.10;;;;;;;3.92;48.23;101182.03;5036241;28;20447;-49
2022/03/07 11:14:40;;;;;;;0.30;0.20;;;;;;;4.36;49.12;101193.97;5036899;28;20451;-50
2022/03/07 11:17:13;;;;;;;0.30;0.20;;;;;;;4.43;48.33;101192.28;5035988;28;20451;-50
2022/03/07 11:19:42;;;;;;;0.20;0.10;;;;;;;4.26;47.55;101204.38;5035431;28;20479;-49
2022/03/07 11:22:10;;;;;;;0.20;0.10;;;;;;;3.98;48.44;101195.28;5035028;28;20506;-49
2022/03/07 11:24:38;;;;;;;0.20;0.10;;;;;;;4.24;48.82;101193.81;5035301;28;20941;-49
2022/03/07 11:27:06;;;;;;;0.20;0.10;;;;;;;4.22;47.73;101192.03;5035102;28;20455;-49
2022/03/07 11:29:36;;;;;;;0.20;0.10;;;;;;;4.25;47.95;101194.69;5035380;28;20500;-49
2022/03/07 11:32:06;;;;;;;0.20;0.17;;;;;;;4.18;48.00;101177.97;5035275;28;20819;-50
2022/03/07 11:34:33;;;;;;;0.20;0.10;;;;;;;4.44;48.20;101181.78;5035134;28;21008;-49